トビリシ の空港の天気 - METARとTAF

トビリシ国際空港 ( UGTB / TBS ) - グルジア トビリシ
飛行場実況気象(Metar)
観測時間04/27 20:30 +04 (04/27 16:30 UTC)
風向・風速東南東 3m/s
視程10km以上
天気現象
少しの雲 雲底高度 2010m
気温12℃
湿度50%
気圧1031hPa
METARUGTB 271630Z 11006KT 9999 FEW066 12/02 Q1031 R13R/CLRD70 NOSIG
過去の天気等 Google飛行場航空写真 Wunderground天気予報

過去48時間のMETAR

飛行場予報(TAF)
発表時間: 4/27 15:00 +04 (4/27 11:00 UTC)
予報対象時間: 27日16時 +04 ~ 28日16時 +04
風向・風速南南東 7m/s
視程10km以上
全天の4割程度の雲 雲底高度 1,680m
27日21時 +04 ~ 27日24時 +04 に徐々に
風向・風速不定 1m/s
全天の8割程度の積乱雲 雲底高度 1,220m
28日0時 +04 ~ 28日4時 +04 に一時的に
風向・風速北東 5m/s
28日4時 +04 ~ 28日11時 +04 に一時的に
視程3,000m
天気現象もや
全天を覆う雲 雲底高度 430m
28日12時 +04 ~ 28日16時 +04 に一時的に
風向・風速南東 6m/s
TAF UGTB 271100Z 2712/2812 15014KT 9999 SCT055 TX19/2712Z TN09/2801Z
BECMG 2717/2720 VRB02KT BKN040CB
TEMPO 2720/2724 05010KT
TEMPO 2800/2807 3000 BR OVC014
TEMPO 2808/2812 14012KT